createdAt,value
2023-01-19T00:00:09.653Z,4038.1
2023-01-19T00:05:46.707Z,4038.6
2023-01-19T00:11:22.795Z,4040.9
2023-01-19T00:16:58.965Z,4040.9
2023-01-19T00:22:34.925Z,4041.9
2023-01-19T00:28:10.009Z,4037.8
2023-01-19T00:33:45.721Z,4039.9
2023-01-19T00:39:21.426Z,4036.9
2023-01-19T00:44:57.348Z,4038.8
2023-01-19T00:50:32.439Z,4038.9
2023-01-19T00:56:08.977Z,4038.3
2023-01-19T01:01:48.850Z,4037.4
2023-01-19T01:07:24.159Z,4037.6
2023-01-19T01:13:29.605Z,4034.1
2023-01-19T01:19:05.218Z,4037.1
2023-01-19T01:24:40.405Z,4035.7
2023-01-19T01:30:16.184Z,4034.1
2023-01-19T01:35:51.312Z,4033.6
2023-01-19T01:41:28.796Z,4033.6
2023-01-19T01:47:04.245Z,4035.2
2023-01-19T01:52:39.265Z,4035.7
2023-01-19T01:58:14.446Z,4035.1
2023-01-19T02:03:50.005Z,4031.9
2023-01-19T02:09:24.966Z,4033.2
2023-01-19T02:15:01.123Z,4029.7
2023-01-19T02:20:37.888Z,4035.4
2023-01-19T02:26:12.997Z,4034.6
2023-01-19T02:31:48.340Z,4030.6
2023-01-19T02:37:23.650Z,4028.7
2023-01-19T02:43:02.780Z,4028.7
2023-01-19T02:48:38.302Z,4032.1
2023-01-19T02:54:13.932Z,4033.1
2023-01-19T02:59:49.463Z,4028.9
2023-01-19T03:05:24.445Z,4027
2023-01-19T03:10:59.434Z,4030.4
2023-01-19T03:16:36.458Z,4026.5
2023-01-19T03:22:11.912Z,4025.2
2023-01-19T03:27:48.678Z,4033.9
2023-01-19T03:33:23.629Z,4026.4
2023-01-19T03:39:04.951Z,4026
2023-01-19T03:44:40.623Z,4023.4
2023-01-19T03:50:19.422Z,4025.9
2023-01-19T03:55:55.834Z,4028
2023-01-19T04:01:32.974Z,4022.2
2023-01-19T04:07:08.473Z,4024.7
2023-01-19T04:12:44.074Z,4024.5
2023-01-19T04:18:19.862Z,4021.8
2023-01-19T04:23:54.807Z,4021.7
2023-01-19T04:29:29.885Z,4025.5
2023-01-19T04:35:05.237Z,4024.7
2023-01-19T04:40:40.230Z,4025.7
2023-01-19T04:46:21.534Z,4023.2
2023-01-19T04:51:56.885Z,4022.3
2023-01-19T04:57:32.423Z,4024.2
2023-01-19T05:03:09.483Z,4024.4
2023-01-19T05:08:46.981Z,4021.8
2023-01-19T05:14:24.488Z,4013.1
2023-01-19T05:19:59.879Z,4020.2
2023-01-19T05:25:35.341Z,4022
2023-01-19T05:31:12.393Z,4022.7
2023-01-19T05:36:47.985Z,4021.2
2023-01-19T05:42:23.253Z,4021.3
2023-01-19T05:47:58.395Z,4023.4
2023-01-19T05:53:42.113Z,4022
2023-01-19T05:59:19.082Z,4024
2023-01-19T06:04:53.996Z,4020.7
2023-01-19T06:10:29.726Z,4022.2
2023-01-19T06:16:07.143Z,4023
2023-01-19T06:21:42.558Z,4021.5
2023-01-19T06:27:18.781Z,4023.9
2023-01-19T06:32:54.449Z,4018.3
2023-01-19T06:38:29.960Z,4020.2
2023-01-19T06:44:05.568Z,4021.5
2023-01-19T06:50:03.117Z,4017.8
2023-01-19T06:55:37.300Z,4023.7
2023-01-19T07:01:15.453Z,4021.3
2023-01-19T07:06:51.831Z,4024.2
2023-01-19T07:12:27.647Z,4017.8
2023-01-19T07:18:03.148Z,4019.5
2023-01-19T07:23:39.888Z,4023
2023-01-19T07:29:14.908Z,4019.8
2023-01-19T07:34:50.027Z,4020.2
2023-01-19T07:40:25.749Z,4018.8
2023-01-19T07:46:02.363Z,4019.2
2023-01-19T07:51:37.706Z,4021.7
2023-01-19T07:57:13.382Z,4017.8
2023-01-19T08:02:49.448Z,4018
2023-01-19T08:08:27.082Z,4014.8
2023-01-19T08:14:02.555Z,4014.3
2023-01-19T08:19:44.389Z,4019.2
2023-01-19T08:25:19.704Z,4022.5
2023-01-19T08:31:24.884Z,4021.5
2023-01-19T08:37:01.439Z,4021
2023-01-19T08:42:58.660Z,4029
2023-01-19T08:48:56.491Z,4029.7
2023-01-19T08:54:37.016Z,4032.6
2023-01-19T09:00:20.602Z,4025.7
2023-01-19T09:05:56.389Z,4029.5
2023-01-19T09:11:34.281Z,4026.4
2023-01-19T09:17:37.304Z,4029.2
2023-01-19T09:23:14.156Z,4046.6
2023-01-19T09:28:55.312Z,4039.1
2023-01-19T09:34:42.349Z,4034.7
2023-01-19T09:40:18.738Z,4034.2
2023-01-19T09:45:55.313Z,4037.8
2023-01-19T09:51:30.327Z,4037.8
2023-01-19T09:57:05.864Z,4039.6
2023-01-19T10:03:09.360Z,4040.9
2023-01-19T10:08:44.629Z,4050.5
2023-01-19T10:14:39.505Z,4070.9
2023-01-19T10:20:19.351Z,4061.9
2023-01-19T10:25:56.811Z,4091.5
2023-01-19T10:31:34.814Z,4201.1
2023-01-19T10:37:19.872Z,4095
2023-01-19T10:42:55.318Z,4085.8
2023-01-19T10:48:31.551Z,4066.4
2023-01-19T10:54:09.872Z,4067.6
2023-01-19T10:59:46.051Z,4079.3
2023-01-19T11:05:22.577Z,4108.4
2023-01-19T11:10:57.935Z,4114.6
2023-01-19T11:16:33.391Z,4094
2023-01-19T11:22:09.168Z,4104.1
2023-01-19T11:27:45.075Z,4089.2
2023-01-19T11:33:41.107Z,4091.7
2023-01-19T11:39:16.585Z,4087.5
2023-01-19T11:44:52.917Z,4083.6
2023-01-19T11:50:28.274Z,4087.7
2023-01-19T11:56:03.892Z,4090
2023-01-19T12:01:39.030Z,4121.7
2023-01-19T12:07:14.795Z,4114.3
2023-01-19T12:12:51.104Z,4125.2
2023-01-19T12:18:27.316Z,4136.1
2023-01-19T12:24:08.247Z,4123.9
2023-01-19T12:29:45.867Z,4148.6
2023-01-19T12:35:27.011Z,4126
2023-01-19T12:41:07.330Z,4139.1
2023-01-19T12:46:43.083Z,4122.7
2023-01-19T12:52:18.255Z,4127.9
2023-01-19T12:57:53.672Z,4118.8
2023-01-19T13:03:29.722Z,4117.7
2023-01-19T13:09:06.100Z,4111.8
2023-01-19T13:14:42.177Z,4122.8
2023-01-19T13:20:17.731Z,4113.6
2023-01-19T13:25:52.854Z,4123.3
2023-01-19T13:31:30.527Z,4118.2
2023-01-19T13:37:08.030Z,4112.3
2023-01-19T13:42:49.165Z,4108.9
2023-01-19T13:48:35.079Z,4113.8
2023-01-19T13:54:16.636Z,4111.6
2023-01-19T13:59:55.993Z,4104.9
2023-01-19T14:05:40.613Z,4104.6
2023-01-19T14:11:25.977Z,4105.4
2023-01-19T14:17:01.821Z,4105.6
2023-01-19T14:22:42.525Z,4102.1
2023-01-19T14:28:18.323Z,4103.4
2023-01-19T14:33:53.763Z,4098.4
2023-01-19T14:39:28.782Z,4099.6
2023-01-19T14:45:04.111Z,4098.1
2023-01-19T14:50:40.580Z,4097.6
2023-01-19T14:56:16.728Z,4096.7
2023-01-19T15:02:16.320Z,4089
2023-01-19T15:07:56.921Z,4091.7
2023-01-19T15:13:33.050Z,4089.3
2023-01-19T15:19:19.204Z,4089.8
2023-01-19T15:25:01.874Z,4085.8
2023-01-19T15:30:42.017Z,4085.2
2023-01-19T15:36:23.939Z,4087
2023-01-19T15:42:03.284Z,4086.7
2023-01-19T15:47:48.582Z,4086.2
2023-01-19T15:53:31.367Z,4084
2023-01-19T15:59:09.867Z,4086.5
2023-01-19T16:04:47.211Z,4085
2023-01-19T16:10:22.290Z,4082.6
2023-01-19T16:15:57.896Z,4081.3
2023-01-19T16:21:37.665Z,4079.5
2023-01-19T16:27:13.041Z,4081.6
2023-01-19T16:32:59.596Z,4081.6
2023-01-19T16:38:34.911Z,4080.1
2023-01-19T16:44:10.502Z,4077.3
2023-01-19T16:49:46.798Z,4078.8
2023-01-19T16:55:21.864Z,4081.6
2023-01-19T17:01:02.868Z,4077.5
2023-01-19T17:06:38.768Z,4082.1
2023-01-19T17:12:22.414Z,4079
2023-01-19T17:18:01.745Z,4078
2023-01-19T17:23:39.441Z,4078.1
2023-01-19T17:29:17.014Z,4078.6
2023-01-19T17:34:52.861Z,4079.6
2023-01-19T17:40:27.871Z,4078.8
2023-01-19T17:46:10.168Z,4079.8
2023-01-19T17:51:45.370Z,4083.8
2023-01-19T17:57:23.317Z,4083
2023-01-19T18:02:59.738Z,4079.6
2023-01-19T18:08:49.962Z,4082.5
2023-01-19T18:14:25.543Z,4079.5
2023-01-19T18:20:01.621Z,4079.3
2023-01-19T18:25:39.825Z,4079.6
2023-01-19T18:31:16.766Z,4079.5
2023-01-19T18:36:51.834Z,4078.3
2023-01-19T18:42:27.915Z,4079.1
2023-01-19T18:48:07.192Z,4078.1
2023-01-19T18:53:43.497Z,4076.9
2023-01-19T18:59:20.022Z,4079.8
2023-01-19T19:04:57.226Z,4077.3
2023-01-19T19:10:32.585Z,4077.5
2023-01-19T19:16:17.749Z,4075.8
2023-01-19T19:21:53.272Z,4076.3
2023-01-19T19:27:28.304Z,4075.4
2023-01-19T19:33:07.269Z,4075.6
2023-01-19T19:38:42.188Z,4071.1
2023-01-19T19:44:18.971Z,4073.8
2023-01-19T19:49:54.789Z,4077.5
2023-01-19T19:55:30.543Z,4076.3
2023-01-19T20:01:06.993Z,4072.6
2023-01-19T20:06:43.514Z,4074.6
2023-01-19T20:12:18.538Z,4071.8
2023-01-19T20:17:53.686Z,4071.9
2023-01-19T20:23:50.109Z,4073.4
2023-01-19T20:29:28.279Z,4073.9
2023-01-19T20:35:03.476Z,4073.4
2023-01-19T20:40:43.953Z,4070.1
2023-01-19T20:46:39.751Z,4069.2
2023-01-19T20:52:21.875Z,4067.4
2023-01-19T20:57:57.216Z,4069.4
2023-01-19T21:03:52.853Z,4071.8
2023-01-19T21:09:31.128Z,4073.1
2023-01-19T21:15:06.148Z,4069.7
2023-01-19T21:21:04.263Z,4070.1
2023-01-19T21:27:00.588Z,4069.7
2023-01-19T21:32:35.917Z,4070.9
2023-01-19T21:38:17.614Z,4070.3
2023-01-19T21:43:52.923Z,4071.8
2023-01-19T21:49:28.098Z,4068.6
2023-01-19T21:55:31.490Z,4068.2
2023-01-19T22:01:20.277Z,4068.1
2023-01-19T22:06:58.656Z,4069.6
2023-01-19T22:12:47.560Z,4068.2
2023-01-19T22:18:23.927Z,4067.6
2023-01-19T22:23:59.142Z,4068.2
2023-01-19T22:29:35.479Z,4065.9
2023-01-19T22:35:14.996Z,4065.6
2023-01-19T22:40:51.396Z,4065.1
2023-01-19T22:46:28.487Z,4065.4
2023-01-19T22:52:03.672Z,4067.1
2023-01-19T22:57:38.635Z,4064.7
2023-01-19T23:03:14.037Z,4065.4
2023-01-19T23:09:14.696Z,4067.4
2023-01-19T23:14:51.773Z,4063.7
2023-01-19T23:20:27.093Z,4063
2023-01-19T23:26:03.874Z,4061.7
2023-01-19T23:31:44.352Z,4060.9
2023-01-19T23:37:19.919Z,4060.9
2023-01-19T23:42:55.388Z,4060.5
2023-01-19T23:48:30.712Z,4059.4
2023-01-19T23:54:06.393Z,4057.5
2023-01-19T23:59:41.477Z,4058
